CheckWX is a tool to help pilots better visualize weather data.  It is not intended as a substitute for an official pre-flight weather briefing.

16:06:46 UTC

KMCN METAR
Middle Georgia Regional Airport
Macon, Georgia, USA
Current

14 mins ago

KMCN 261553Z VRB03KT 10SM CLR 35/18 A3015 RMK AO2 SLP204 T03500183
Observed
May-26 @ 15:53 UTC
Wind
  • Variable at 3 KTS
Visibility
10 SM
Flight Rules
VFR
Cloud Levels
  • Clear skies
Temperature
35°C / 95°F
Dewpoint
18°C / 64°F
Humidity
36%
Altimeter
30.15" Hg
Pressure
1021.02 hPa
Previous

1 hour ago

KMCN 261453Z VRB06KT 10SM CLR 33/19 A3016 RMK AO2 SLP208 T03330189 58001
Observed
May-26 @ 14:53 UTC
Wind
  • Variable at 6 KTS
Visibility
10 SM
Flight Rules
VFR
Cloud Levels
  • Clear skies
Temperature
33°C / 91°F
Dewpoint
19°C / 66°F
Heat Index
34°C / 94°F
Humidity
44%
Altimeter
30.16" Hg
Pressure
1021.32 hPa
Previous

2 hours ago

KMCN 261353Z 32003KT 10SM FEW075 31/20 A3017 RMK AO2 SLP212 T03110200
Observed
May-26 @ 13:53 UTC
Wind
  • 320° at 3 KTS
Visibility
10 SM
Flight Rules
VFR
Cloud Levels
  • Few at 7,500' AGL
Temperature
31°C / 88°F
Dewpoint
20°C / 68°F
Heat Index
33°C / 92°F
Humidity
52%
Altimeter
30.17" Hg
Pressure
1021.72 hPa